createdAt,value
2022-09-15T00:00:43.000Z,964.5
2022-09-15T00:30:52.000Z,964.5
2022-09-15T01:00:56.000Z,964.2
2022-09-15T01:30:58.000Z,964.0
2022-09-15T02:00:58.803Z,964.1
2022-09-15T02:31:08.000Z,964.3
2022-09-15T03:01:18.000Z,964.0
2022-09-15T03:31:18.845Z,964.2
2022-09-15T04:01:19.000Z,964.2
2022-09-15T04:31:20.541Z,964.1
2022-09-15T05:01:23.421Z,964.4
2022-09-15T05:31:34.506Z,964.3
2022-09-15T06:01:44.539Z,964.3
2022-09-15T06:31:46.447Z,964.3
2022-09-15T07:01:57.622Z,964.7
2022-09-15T07:31:59.573Z,964.7
2022-09-15T08:02:09.515Z,965
2022-09-15T08:32:09.616Z,965.2
2022-09-15T09:02:12.676Z,965.5
2022-09-15T09:32:14.624Z,965.3
2022-09-15T10:02:18.722Z,964.9
2022-09-15T10:32:19.961Z,964.8
2022-09-15T10:42:45.000Z,964.7
2022-09-15T11:38:57.000Z,965.3
2022-09-15T11:39:09.000Z,965.2
2022-09-15T11:39:49.000Z,965.2
2022-09-15T11:40:01.000Z,965.2
2022-09-15T11:40:10.000Z,965.2
2022-09-15T12:15:29.000Z,965.8
2022-09-15T12:45:40.000Z,966.2
2022-09-15T13:15:42.000Z,966.6
2022-09-15T13:45:44.000Z,966.8
2022-09-15T14:15:54.000Z,966.7
2022-09-15T14:46:01.000Z,967.0
2022-09-15T15:16:05.000Z,967.1
2022-09-15T15:46:15.082Z,967.9
2022-09-15T16:16:23.422Z,967.1
2022-09-15T16:46:28.000Z,967.1
2022-09-15T17:16:35.000Z,967.5
2022-09-15T17:46:40.642Z,967.6
2022-09-15T18:16:43.000Z,967.8
2022-09-15T18:46:45.615Z,968.1
2022-09-15T19:16:56.000Z,968.4
2022-09-15T19:47:01.000Z,968.4
2022-09-15T20:17:04.653Z,968.6
2022-09-15T20:47:06.612Z,968.6
2022-09-15T21:17:09.000Z,968.8
2022-09-15T21:47:13.000Z,968.9
2022-09-15T22:17:21.927Z,968.9
2022-09-15T22:47:25.000Z,969.0
2022-09-15T23:17:26.919Z,969
2022-09-15T23:47:27.994Z,968.8
